Time;durP1;ratioP1;P1;durP2;ratioP2;P2;SDS_P1;SDS_P2;PMS_P1;PMS_P2;Temp;Humidity;BMP_temperature;BMP_pressure;BME280_temperature;BME280_humidity;BME280_pressure;Samples;Min_cycle;Max_cycle;Signal;HPM_P1;HPM_P2
2022/03/06 00:00:08;;;;;;;0.60;0.60;;;16.20;63.50;;;;;;5058987;28;20689;-19
2022/03/06 00:02:34;;;;;;;1.00;1.00;;;16.20;63.50;;;;;;5071824;28;20425;-19
2022/03/06 00:04:59;;;;;;;0.93;0.93;;;16.20;63.50;;;;;;5073919;28;20052;-19
2022/03/06 00:07:25;;;;;;;1.33;1.23;;;16.20;63.50;;;;;;5071321;28;20053;-19
2022/03/06 00:09:50;;;;;;;1.08;1.08;;;16.20;63.60;;;;;;5067070;28;20568;-19
2022/03/06 00:12:17;;;;;;;0.90;0.90;;;16.20;63.50;;;;;;5074496;28;20048;-18
2022/03/06 00:14:42;;;;;;;0.70;0.70;;;16.20;63.40;;;;;;5069940;28;20067;-19
2022/03/06 00:17:08;;;;;;;1.10;1.00;;;16.20;63.50;;;;;;5074659;28;20131;-19
2022/03/06 00:19:34;;;;;;;1.02;0.95;;;16.20;63.50;;;;;;5063681;28;20056;-19
2022/03/06 00:21:59;;;;;;;0.93;0.93;;;16.20;63.50;;;;;;5073080;28;20131;-19
2022/03/06 00:24:25;;;;;;;0.90;0.90;;;16.20;63.50;;;;;;5074151;28;20579;-19
2022/03/06 00:26:50;;;;;;;0.73;0.73;;;16.20;63.60;;;;;;5061228;28;20049;-19
2022/03/06 00:29:16;;;;;;;0.70;0.68;;;16.20;63.60;;;;;;5074265;28;20193;-19
2022/03/06 00:31:42;;;;;;;0.77;0.77;;;16.20;63.60;;;;;;5058695;28;20045;-19
2022/03/06 00:34:07;;;;;;;0.98;0.98;;;16.20;63.50;;;;;;5057494;28;20044;-19
2022/03/06 00:36:33;;;;;;;0.80;0.80;;;16.20;63.60;;;;;;5057756;28;20067;-19
2022/03/06 00:38:58;;;;;;;0.90;0.90;;;16.20;63.50;;;;;;5057441;28;20043;-19
2022/03/06 00:41:24;;;;;;;0.80;0.80;;;16.20;63.50;;;;;;5057479;28;20465;-18
2022/03/06 00:43:50;;;;;;;0.80;0.80;;;16.20;63.60;;;;;;5057309;28;20037;-19
2022/03/06 00:46:15;;;;;;;0.85;0.85;;;16.20;63.50;;;;;;5057520;28;20391;-19
2022/03/06 00:48:41;;;;;;;0.80;0.80;;;16.20;63.60;;;;;;5057499;28;20387;-19
2022/03/06 00:51:06;;;;;;;1.00;0.90;;;16.20;63.60;;;;;;5056969;28;20052;-19
2022/03/06 00:53:32;;;;;;;0.80;0.80;;;16.20;63.50;;;;;;5057514;28;20045;-19
2022/03/06 00:55:58;;;;;;;0.77;0.77;;;16.20;63.50;;;;;;5071423;28;20502;-19
2022/03/06 00:58:23;;;;;;;0.82;0.82;;;16.20;63.50;;;;;;5077288;28;20045;-19
2022/03/06 01:00:49;;;;;;;0.70;0.70;;;16.20;63.60;;;;;;5068512;28;20029;-19
2022/03/06 01:03:16;;;;;;;0.80;0.80;;;16.10;63.40;;;;;;5065501;28;20048;-19
2022/03/06 01:05:43;;;;;;;0.60;0.60;;;16.10;63.50;;;;;;5060844;28;20036;-19
2022/03/06 01:08:08;;;;;;;0.70;0.70;;;16.10;63.60;;;;;;5073550;28;20491;-19
2022/03/06 01:10:35;;;;;;;1.00;0.90;;;16.10;63.50;;;;;;5061181;28;20045;-19
2022/03/06 01:13:00;;;;;;;0.63;0.63;;;16.10;63.60;;;;;;5072251;28;20512;-19
2022/03/06 01:15:26;;;;;;;0.93;0.93;;;16.10;63.60;;;;;;5062564;28;20457;-19
2022/03/06 01:17:51;;;;;;;0.95;0.90;;;16.10;63.60;;;;;;5061422;28;20048;-19
2022/03/06 01:20:17;;;;;;;0.77;0.73;;;16.10;63.60;;;;;;5076688;28;20135;-19
2022/03/06 01:22:44;;;;;;;0.65;0.65;;;16.10;63.60;;;;;;5069806;28;20421;-19
2022/03/06 01:25:10;;;;;;;0.80;0.80;;;16.00;63.60;;;;;;5060280;28;20049;-19
2022/03/06 01:27:35;;;;;;;0.82;0.80;;;16.10;63.60;;;;;;5062648;28;20051;-19
2022/03/06 01:30:01;;;;;;;0.50;0.50;;;16.10;63.50;;;;;;5072348;28;20036;-19
2022/03/06 01:32:27;;;;;;;0.70;0.70;;;16.10;63.50;;;;;;5066878;28;20044;-19
2022/03/06 01:34:52;;;;;;;0.60;0.60;;;16.10;63.40;;;;;;5055950;28;20174;-18
2022/03/06 01:37:18;;;;;;;0.80;0.80;;;16.10;63.40;;;;;;5062040;28;20083;-19
2022/03/06 01:39:43;;;;;;;0.70;0.70;;;16.10;63.50;;;;;;5056422;28;20040;-19
2022/03/06 01:42:09;;;;;;;0.88;0.88;;;16.10;63.40;;;;;;5057159;28;20510;-19
2022/03/06 01:44:34;;;;;;;0.88;0.70;;;16.10;63.40;;;;;;5056560;28;20099;-18
2022/03/06 01:47:00;;;;;;;0.80;0.80;;;16.10;63.50;;;;;;5055690;28;20055;-19
2022/03/06 01:49:26;;;;;;;0.77;0.77;;;16.10;63.40;;;;;;5056329;28;20037;-19
2022/03/06 01:51:51;;;;;;;0.90;0.90;;;16.00;63.30;;;;;;5055532;28;20041;-19
2022/03/06 01:54:17;;;;;;;0.85;0.85;;;16.00;63.40;;;;;;5056506;28;20037;-19
2022/03/06 01:56:42;;;;;;;0.77;0.77;;;16.00;63.40;;;;;;5056085;28;20159;-18
2022/03/06 01:59:08;;;;;;;0.70;0.70;;;16.00;63.40;;;;;;5055526;28;20064;-19
2022/03/06 02:01:34;;;;;;;0.90;0.90;;;16.00;63.50;;;;;;5054763;28;20073;-19
2022/03/06 02:03:59;;;;;;;0.60;0.60;;;16.00;63.40;;;;;;5055452;28;20433;-19
2022/03/06 02:06:26;;;;;;;0.93;0.60;;;16.00;63.40;;;;;;5055813;28;20047;-18
2022/03/06 02:08:51;;;;;;;0.73;0.73;;;16.10;63.30;;;;;;5055132;28;20033;-19
2022/03/06 02:11:17;;;;;;;0.70;0.70;;;16.00;63.30;;;;;;5055758;28;20132;-19
2022/03/06 02:13:43;;;;;;;0.65;0.65;;;16.00;63.40;;;;;;5058359;28;20043;-19
2022/03/06 02:16:09;;;;;;;1.00;1.00;;;16.00;63.40;;;;;;5075199;28;20066;-19
2022/03/06 02:18:35;;;;;;;0.80;0.80;;;16.00;64.20;;;;;;5059675;28;20684;-19
2022/03/06 02:21:06;;;;;;;0.80;0.80;;;16.00;63.50;;;;;;5055169;28;20389;-19
2022/03/06 02:23:32;;;;;;;0.50;0.50;;;16.00;63.40;;;;;;5055860;28;20052;-19
2022/03/06 02:25:58;;;;;;;0.77;0.77;;;16.00;63.40;;;;;;5054893;28;20049;-19
2022/03/06 02:28:24;;;;;;;0.80;0.80;;;16.00;63.40;;;;;;5055511;28;20477;-19
2022/03/06 02:30:49;;;;;;;0.75;0.75;;;15.90;63.40;;;;;;5055246;28;20044;-19
2022/03/06 02:33:15;;;;;;;0.95;0.75;;;16.00;63.60;;;;;;5055613;28;20043;-19
2022/03/06 02:35:41;;;;;;;0.65;0.65;;;15.90;63.50;;;;;;5055639;28;20052;-19
2022/03/06 02:38:06;;;;;;;0.52;0.52;;;15.90;63.40;;;;;;5055444;28;22287;-19
2022/03/06 02:40:37;;;;;;;0.70;0.70;;;16.00;63.40;;;;;;5063437;28;20044;-19
2022/03/06 02:43:03;;;;;;;0.60;0.60;;;16.00;63.50;;;;;;5061277;28;20118;-19
2022/03/06 02:45:29;;;;;;;0.60;0.60;;;16.00;63.50;;;;;;5061545;28;20073;-19
2022/03/06 02:47:56;;;;;;;0.85;0.85;;;16.00;63.50;;;;;;5057087;28;20037;-19
2022/03/06 02:50:32;;;;;;;0.77;0.77;;;16.00;63.50;;;;;;5064775;28;20498;-19
2022/03/06 02:52:58;;;;;;;0.82;0.82;;;15.90;63.50;;;;;;5054726;28;20498;-18
2022/03/06 02:55:24;;;;;;;0.70;0.70;;;15.90;63.50;;;;;;5056850;28;20111;-18
2022/03/06 02:57:50;;;;;;;0.85;0.85;;;15.90;63.60;;;;;;5063160;28;20040;-19
2022/03/06 03:00:17;;;;;;;0.65;0.65;;;15.80;63.60;;;;;;5061998;28;20456;-19
2022/03/06 03:02:43;;;;;;;0.80;0.80;;;15.90;63.70;;;;;;5055293;28;20521;-19
2022/03/06 03:05:12;;;;;;;0.50;0.50;;;15.90;63.60;;;;;;5054768;28;20106;-19
2022/03/06 03:07:39;;;;;;;0.60;0.60;;;15.90;63.60;;;;;;5055164;28;20040;-19
2022/03/06 03:10:06;;;;;;;0.50;0.50;;;15.90;63.60;;;;;;5054754;28;20049;-19
2022/03/06 03:12:32;;;;;;;1.27;0.60;;;15.90;63.60;;;;;;5055191;28;20177;-19
2022/03/06 03:14:57;;;;;;;0.70;0.70;;;15.90;63.50;;;;;;5068536;28;20106;-19
2022/03/06 03:17:23;;;;;;;0.75;0.73;;;15.90;63.50;;;;;;5074960;28;20044;-19
2022/03/06 03:19:49;;;;;;;0.60;0.60;;;15.90;63.50;;;;;;5064561;28;20498;-19
2022/03/06 03:22:14;;;;;;;0.60;0.60;;;15.90;63.40;;;;;;5054471;28;20111;-19
2022/03/06 03:24:40;;;;;;;0.50;0.50;;;15.80;63.40;;;;;;5055368;28;20095;-19
2022/03/06 03:27:05;;;;;;;0.40;0.40;;;15.80;63.60;;;;;;5056416;28;20037;-19
2022/03/06 03:29:32;;;;;;;0.68;0.68;;;15.90;63.50;;;;;;5058931;28;20053;-18
2022/03/06 03:31:58;;;;;;;0.50;0.50;;;15.80;63.60;;;;;;5058286;28;20083;-19
2022/03/06 03:34:23;;;;;;;0.60;0.57;;;15.80;63.60;;;;;;5058736;28;20493;-19
2022/03/06 03:36:49;;;;;;;0.60;0.60;;;15.90;63.30;;;;;;5058752;28;20049;-19
2022/03/06 03:39:14;;;;;;;0.50;0.50;;;15.90;63.30;;;;;;5058182;28;20048;-19
2022/03/06 03:41:40;;;;;;;0.60;0.60;;;15.90;63.40;;;;;;5071391;28;20055;-19
2022/03/06 03:44:06;;;;;;;0.50;0.50;;;15.90;63.40;;;;;;5078091;28;20177;-19
2022/03/06 03:46:31;;;;;;;0.68;0.68;;;15.90;63.50;;;;;;5076766;28;20036;-19
2022/03/06 03:48:57;;;;;;;0.70;0.70;;;15.80;63.50;;;;;;5058142;28;20037;-19
2022/03/06 03:51:22;;;;;;;0.60;0.52;;;15.80;63.60;;;;;;5058610;28;20043;-19
2022/03/06 03:53:48;;;;;;;0.60;0.60;;;15.80;63.50;;;;;;5058449;28;20037;-19
2022/03/06 03:56:14;;;;;;;0.50;0.50;;;15.90;63.40;;;;;;5056261;28;20045;-19
2022/03/06 03:58:39;;;;;;;0.40;0.40;;;15.90;63.40;;;;;;5058470;28;20140;-19
2022/03/06 04:01:05;;;;;;;0.50;0.50;;;15.80;63.60;;;;;;5057752;28;20041;-19
2022/03/06 04:03:30;;;;;;;0.50;0.50;;;15.80;63.60;;;;;;5058330;28;20465;-19
2022/03/06 04:05:56;;;;;;;0.65;0.65;;;15.80;63.40;;;;;;5057904;28;20056;-19
2022/03/06 04:08:22;;;;;;;0.50;0.50;;;15.80;63.50;;;;;;5058097;28;20045;-19
2022/03/06 04:10:47;;;;;;;0.40;0.40;;;15.80;63.60;;;;;;5058006;28;20045;-19
2022/03/06 04:13:13;;;;;;;0.60;0.60;;;15.80;63.60;;;;;;5057336;28;20052;-19
2022/03/06 04:15:38;;;;;;;0.60;0.60;;;15.70;63.70;;;;;;5077701;28;20055;-19
2022/03/06 04:18:04;;;;;;;0.60;0.60;;;15.80;63.70;;;;;;5074815;28;20055;-19
2022/03/06 04:20:30;;;;;;;0.40;0.40;;;15.80;63.50;;;;;;5075265;28;20056;-19
2022/03/06 04:22:56;;;;;;;0.80;0.60;;;15.80;63.60;;;;;;5068418;28;20076;-19
2022/03/06 04:25:22;;;;;;;0.68;0.68;;;15.70;63.70;;;;;;5061339;28;20081;-19
2022/03/06 04:27:47;;;;;;;0.40;0.40;;;15.80;63.70;;;;;;5057758;28;20052;-19
2022/03/06 04:30:13;;;;;;;0.55;0.55;;;15.80;63.60;;;;;;5065993;28;20531;-18
2022/03/06 04:32:39;;;;;;;0.50;0.50;;;15.70;63.70;;;;;;5077122;28;20059;-19
2022/03/06 04:35:08;;;;;;;0.70;0.70;;;15.80;63.60;;;;;;5066456;28;20036;-19
2022/03/06 04:37:33;;;;;;;0.50;0.50;;;15.80;63.60;;;;;;5075347;28;20066;-19
2022/03/06 04:39:59;;;;;;;0.40;0.40;;;15.80;63.60;;;;;;5076637;28;20394;-19
2022/03/06 04:42:24;;;;;;;0.55;0.55;;;15.70;63.60;;;;;;5065533;28;20074;-19
2022/03/06 04:44:50;;;;;;;0.70;0.70;;;15.80;63.60;;;;;;5061739;28;20190;-19
2022/03/06 04:47:15;;;;;;;0.50;0.50;;;15.70;63.70;;;;;;5060678;28;20094;-19
2022/03/06 04:49:41;;;;;;;0.60;0.60;;;15.70;63.80;;;;;;5067065;28;20501;-19
2022/03/06 04:52:07;;;;;;;0.70;0.70;;;15.70;63.70;;;;;;5072945;28;20051;-19
2022/03/06 04:54:32;;;;;;;0.50;0.50;;;15.70;63.70;;;;;;5068320;28;20043;-19
2022/03/06 04:56:58;;;;;;;0.40;0.40;;;15.70;63.80;;;;;;5076637;28;20509;-19
2022/03/06 04:59:24;;;;;;;0.57;0.57;;;15.70;63.70;;;;;;5077466;28;20040;-19
2022/03/06 05:01:49;;;;;;;0.60;0.60;;;15.70;63.60;;;;;;5069647;28;20080;-19
2022/03/06 05:04:15;;;;;;;0.77;0.77;;;15.70;63.70;;;;;;5056538;28;20052;-19
2022/03/06 05:06:40;;;;;;;0.55;0.50;;;15.70;63.60;;;;;;5056985;28;20099;-19
2022/03/06 05:09:06;;;;;;;0.60;0.60;;;15.70;63.70;;;;;;5057199;28;20032;-19
2022/03/06 05:11:33;;;;;;;0.50;0.50;;;15.60;63.80;;;;;;5065903;28;20045;-19
2022/03/06 05:13:58;;;;;;;0.75;0.60;;;15.70;63.70;;;;;;5073596;28;20040;-19
2022/03/06 05:16:24;;;;;;;0.68;0.68;;;15.70;63.70;;;;;;5063916;28;20051;-19
2022/03/06 05:18:50;;;;;;;0.82;0.82;;;15.70;63.60;;;;;;5076763;28;20062;-19
2022/03/06 05:21:15;;;;;;;0.70;0.70;;;15.70;63.60;;;;;;5076325;28;20044;-18
2022/03/06 05:23:41;;;;;;;0.55;0.55;;;15.70;63.80;;;;;;5066085;28;20036;-19
2022/03/06 05:26:07;;;;;;;0.80;0.80;;;15.70;63.60;;;;;;5059036;28;20040;-19
2022/03/06 05:28:33;;;;;;;0.80;0.80;;;15.70;63.50;;;;;;5056748;28;20098;-19
2022/03/06 05:30:58;;;;;;;0.70;0.70;;;15.70;63.50;;;;;;5056563;28;20049;-19
2022/03/06 05:33:24;;;;;;;0.68;0.68;;;15.70;63.50;;;;;;5056050;28;20128;-19
2022/03/06 05:35:50;;;;;;;0.65;0.65;;;15.60;63.70;;;;;;5056642;28;20105;-19
2022/03/06 05:38:15;;;;;;;0.68;0.68;;;15.60;63.80;;;;;;5055684;28;20044;-19
2022/03/06 05:40:41;;;;;;;0.73;0.73;;;15.70;63.70;;;;;;5061307;28;20045;-18
2022/03/06 05:43:06;;;;;;;0.80;0.70;;;15.70;63.70;;;;;;5070557;28;20498;-19
2022/03/06 05:45:32;;;;;;;0.70;0.70;;;15.60;63.70;;;;;;5056467;28;20053;-19
2022/03/06 05:47:58;;;;;;;0.80;0.80;;;15.60;63.90;;;;;;5058522;28;20036;-19
2022/03/06 05:50:24;;;;;;;0.95;0.95;;;15.60;63.90;;;;;;5063817;28;20489;-19
2022/03/06 05:52:49;;;;;;;0.70;0.70;;;15.60;64.00;;;;;;5056264;28;20052;-19
2022/03/06 05:55:15;;;;;;;0.80;0.80;;;15.60;64.00;;;;;;5055451;28;20064;-19
2022/03/06 05:57:41;;;;;;;0.95;0.95;;;15.60;64.00;;;;;;5056228;28;20411;-19
2022/03/06 06:00:08;;;;;;;0.68;0.68;;;15.60;64.00;;;;;;5055852;28;20056;-19
2022/03/06 06:02:38;;;;;;;0.70;0.70;;;15.60;64.00;;;;;;5056216;28;20048;-19
2022/03/06 06:05:07;;;;;;;0.90;0.90;;;15.60;64.10;;;;;;5056479;28;20064;-19
2022/03/06 06:07:32;;;;;;;1.00;1.00;;;15.50;64.20;;;;;;5058705;28;20187;-19
2022/03/06 06:09:58;;;;;;;0.82;0.82;;;15.60;64.20;;;;;;5055821;28;20087;-19
2022/03/06 06:12:24;;;;;;;0.90;0.90;;;15.60;64.20;;;;;;5057154;28;20088;-19
2022/03/06 06:14:50;;;;;;;1.25;1.15;;;15.60;64.20;;;;;;5063749;28;20438;-19
2022/03/06 06:17:15;;;;;;;1.17;1.13;;;15.60;64.20;;;;;;5068378;28;20040;-19
2022/03/06 06:19:41;;;;;;;0.85;0.85;;;15.60;64.20;;;;;;5063852;28;20045;-19
2022/03/06 06:22:07;;;;;;;1.50;1.40;;;15.60;64.20;;;;;;5065329;28;20047;-19
2022/03/06 06:24:33;;;;;;;1.00;1.00;;;15.60;64.20;;;;;;5065877;28;20045;-19
2022/03/06 06:26:59;;;;;;;0.90;0.90;;;15.50;64.20;;;;;;5069140;28;20037;-20
2022/03/06 06:29:25;;;;;;;1.05;1.05;;;15.60;64.20;;;;;;5067006;28;20045;-19
2022/03/06 06:31:51;;;;;;;1.10;1.10;;;15.60;64.30;;;;;;5064553;28;20033;-19
2022/03/06 06:34:17;;;;;;;1.20;1.10;;;15.60;64.30;;;;;;5063584;28;20059;-18
2022/03/06 06:36:43;;;;;;;1.50;1.40;;;15.60;64.30;;;;;;5062475;28;20041;-19
2022/03/06 06:39:09;;;;;;;1.38;1.27;;;15.60;64.30;;;;;;5066534;28;20131;-20
2022/03/06 06:41:37;;;;;;;1.05;1.05;;;15.60;64.30;;;;;;5062409;28;20047;-19
2022/03/06 06:44:03;;;;;;;1.25;1.20;;;15.50;64.30;;;;;;5063686;28;20057;-19
2022/03/06 06:46:28;;;;;;;1.30;1.20;;;15.50;64.30;;;;;;5069822;28;20045;-18
2022/03/06 06:48:54;;;;;;;1.45;1.35;;;15.50;64.40;;;;;;5065254;28;20033;-19
2022/03/06 06:51:20;;;;;;;0.90;0.90;;;15.50;64.30;;;;;;5062680;28;20040;-19
2022/03/06 06:53:45;;;;;;;0.90;0.90;;;15.50;64.40;;;;;;5068543;28;20144;-19
2022/03/06 06:56:11;;;;;;;1.20;1.10;;;15.50;64.30;;;;;;5066815;28;20040;-18
2022/03/06 06:58:36;;;;;;;1.38;1.30;;;15.50;64.40;;;;;;5064446;28;20044;-19
2022/03/06 07:01:02;;;;;;;1.60;1.50;;;15.50;64.40;;;;;;5070889;28;20551;-19
2022/03/06 07:03:27;;;;;;;1.60;1.50;;;15.50;64.50;;;;;;5070193;28;20049;-19
2022/03/06 07:05:55;;;;;;;1.30;1.20;;;15.50;64.50;;;;;;5069680;28;20037;-19
2022/03/06 07:08:21;;;;;;;1.27;1.10;;;15.50;64.40;;;;;;5068656;28;20043;-19
2022/03/06 07:10:47;;;;;;;1.73;1.63;;;15.50;64.40;;;;;;5070232;28;20040;-19
2022/03/06 07:13:12;;;;;;;1.50;1.40;;;15.60;64.30;;;;;;5070412;28;20039;-19
2022/03/06 07:15:38;;;;;;;1.10;1.10;;;15.50;64.30;;;;;;5066267;28;20075;-19
2022/03/06 07:18:03;;;;;;;1.20;1.10;;;15.50;64.40;;;;;;5070598;28;20084;-19
2022/03/06 07:20:29;;;;;;;1.48;1.35;;;15.50;64.50;;;;;;5068198;28;20425;-19
2022/03/06 07:22:55;;;;;;;1.30;1.20;;;15.50;64.40;;;;;;5068367;28;20048;-19
2022/03/06 07:25:20;;;;;;;1.45;1.35;;;15.50;64.50;;;;;;5070378;28;20559;-19
2022/03/06 07:27:46;;;;;;;1.50;1.40;;;15.50;64.60;;;;;;5065323;28;20045;-19
2022/03/06 07:30:12;;;;;;;1.50;1.40;;;15.50;64.40;;;;;;5052968;28;20059;-19
2022/03/06 07:32:48;;;;;;;1.50;1.40;;;15.50;64.60;;;;;;5064134;28;20049;-19
2022/03/06 07:35:14;;;;;;;1.60;1.50;;;15.50;64.50;;;;;;5071548;28;20049;-19
2022/03/06 07:37:40;;;;;;;1.70;1.60;;;15.50;64.40;;;;;;5071191;28;20040;-19
2022/03/06 07:40:07;;;;;;;1.67;1.58;;;15.50;64.40;;;;;;5070896;28;20053;-19
2022/03/06 07:42:33;;;;;;;1.70;1.60;;;15.50;64.50;;;;;;5063631;28;20059;-19
2022/03/06 07:44:58;;;;;;;1.85;1.75;;;15.60;64.50;;;;;;5065272;28;20115;-19
2022/03/06 07:47:24;;;;;;;1.70;1.60;;;15.50;64.30;;;;;;5068290;28;20040;-19
2022/03/06 07:49:49;;;;;;;1.80;1.70;;;15.50;64.30;;;;;;5067400;28;20140;-19
2022/03/06 07:52:15;;;;;;;1.50;1.40;;;15.60;64.30;;;;;;5064482;28;20053;-19
2022/03/06 07:54:40;;;;;;;1.77;1.60;;;15.60;64.30;;;;;;5065835;28;20052;-18
2022/03/06 07:57:06;;;;;;;1.60;1.50;;;15.60;64.30;;;;;;5060049;28;20103;-19
2022/03/06 07:59:32;;;;;;;1.60;1.50;;;15.60;64.10;;;;;;5067110;28;20105;-19
2022/03/06 08:01:57;;;;;;;1.70;1.60;;;15.60;64.10;;;;;;5070043;28;20524;-19
2022/03/06 08:04:23;;;;;;;2.08;1.80;;;15.50;64.30;;;;;;5073439;28;20070;-19
2022/03/06 08:06:48;;;;;;;1.70;1.60;;;15.50;64.30;;;;;;5069953;28;20124;-19
2022/03/06 08:09:15;;;;;;;1.85;1.75;;;15.50;64.40;;;;;;5061972;28;20090;-19
2022/03/06 08:11:40;;;;;;;2.03;1.92;;;15.50;64.40;;;;;;5069393;28;20068;-19
2022/03/06 08:14:06;;;;;;;1.60;1.40;;;15.50;64.20;;;;;;5067846;28;20041;-19
2022/03/06 08:16:31;;;;;;;1.92;1.83;;;15.50;64.30;;;;;;5057539;28;20128;-19
2022/03/06 08:18:57;;;;;;;1.55;1.45;;;15.50;64.40;;;;;;4709807;28;10000650;-19
2022/03/06 08:21:22;;;;;;;1.50;1.40;;;15.50;64.30;;;;;;5072751;28;20040;-19
2022/03/06 08:23:51;;;;;;;1.48;1.38;;;15.60;64.30;;;;;;5074009;28;20659;-19
2022/03/06 08:26:16;;;;;;;2.20;1.70;;;15.60;65.00;;;;;;5068540;28;20045;-19
2022/03/06 08:28:42;;;;;;;1.55;1.45;;;15.60;64.20;;;;;;5069107;28;20031;-19
2022/03/06 08:31:08;;;;;;;1.52;1.20;;;15.60;64.30;;;;;;5067989;28;20040;-19
2022/03/06 08:33:34;;;;;;;1.50;1.40;;;15.70;64.30;;;;;;5073415;28;20385;-19
2022/03/06 08:36:00;;;;;;;1.50;1.40;;;15.70;64.40;;;;;;5072878;28;20048;-19
2022/03/06 08:38:25;;;;;;;1.40;1.30;;;15.70;65.30;;;;;;5073254;28;20033;-19
2022/03/06 08:40:51;;;;;;;1.38;1.27;;;15.70;64.40;;;;;;5071995;28;20071;-19
2022/03/06 08:43:16;;;;;;;1.73;1.63;;;15.70;64.30;;;;;;5066861;28;20045;-19
2022/03/06 08:45:42;;;;;;;1.55;1.42;;;15.70;64.40;;;;;;5061516;28;20064;-19
2022/03/06 08:48:07;;;;;;;2.05;1.80;;;15.60;64.30;;;;;;5073238;28;20067;-19
2022/03/06 08:50:33;;;;;;;2.95;2.75;;;15.70;64.20;;;;;;5070469;28;20120;-19
2022/03/06 08:52:59;;;;;;;3.45;3.25;;;15.70;64.50;;;;;;5073678;28;20044;-19
2022/03/06 08:55:24;;;;;;;3.78;3.53;;;15.70;64.50;;;;;;5072588;28;20051;-19
2022/03/06 08:57:50;;;;;;;5.18;4.65;;;15.70;64.50;;;;;;5070014;28;20052;-19
2022/03/06 09:00:15;;;;;;;6.43;5.10;;;15.70;64.90;;;;;;5072359;28;20052;-19
2022/03/06 09:02:41;;;;;;;6.88;5.97;;;15.70;64.80;;;;;;5066024;28;20055;-19
2022/03/06 09:05:07;;;;;;;6.47;5.78;;;15.70;64.70;;;;;;5065369;28;20053;-19
2022/03/06 09:07:32;;;;;;;7.43;6.57;;;15.70;64.60;;;;;;5067811;28;20707;-19
2022/03/06 09:09:58;;;;;;;10.02;7.53;;;15.70;64.60;;;;;;5073005;28;20098;-19
2022/03/06 09:12:26;;;;;;;10.80;7.82;;;15.70;65.00;;;;;;5063813;28;20056;-19
2022/03/06 09:14:55;;;;;;;11.55;8.75;;;15.70;65.20;;;;;;5072872;28;20070;-19
2022/03/06 09:17:20;;;;;;;11.32;8.77;;;15.70;65.30;;;;;;5072481;28;20079;-19
2022/03/06 09:19:46;;;;;;;13.40;8.60;;;15.70;65.50;;;;;;5062257;28;20072;-19
2022/03/06 09:22:11;;;;;;;12.25;8.85;;;15.70;65.50;;;;;;5064748;28;20053;-19
2022/03/06 09:24:37;;;;;;;14.20;9.38;;;15.70;65.20;;;;;;5060867;28;20510;-19
2022/03/06 09:27:03;;;;;;;11.50;8.80;;;15.70;65.50;;;;;;5065914;28;20497;-19
2022/03/06 09:29:29;;;;;;;11.48;9.02;;;15.70;65.30;;;;;;5066084;28;20040;-19
2022/03/06 09:31:54;;;;;;;13.20;9.10;;;15.70;65.60;;;;;;5067395;28;20048;-19
2022/03/06 09:34:20;;;;;;;13.38;9.85;;;15.70;65.10;;;;;;5064103;28;20036;-19
2022/03/06 09:36:46;;;;;;;11.50;9.30;;;15.70;65.30;;;;;;5067877;28;20044;-19
2022/03/06 09:39:13;;;;;;;14.45;10.98;;;15.70;65.30;;;;;;5072069;28;20052;-18
2022/03/06 09:41:39;;;;;;;16.40;11.95;;;15.80;65.50;;;;;;5069316;28;20117;-19
2022/03/06 09:44:07;;;;;;;16.02;12.15;;;15.70;65.20;;;;;;5072376;28;20127;-18
2022/03/06 09:46:34;;;;;;;18.42;13.38;;;15.70;65.20;;;;;;5072322;28;20139;-19
2022/03/06 09:49:01;;;;;;;19.77;13.88;;;15.80;65.30;;;;;;5069118;28;20040;-19
2022/03/06 09:51:27;;;;;;;21.88;15.02;;;15.80;65.20;;;;;;5075680;28;20076;-19
2022/03/06 09:53:52;;;;;;;24.60;15.63;;;15.80;65.30;;;;;;5067848;28;20082;-19
2022/03/06 09:56:18;;;;;;;22.73;15.60;;;15.80;65.20;;;;;;5061407;28;20090;-19
2022/03/06 09:58:44;;;;;;;19.38;14.32;;;15.70;65.20;;;;;;5070118;28;20075;-19
2022/03/06 10:01:10;;;;;;;19.85;14.48;;;15.80;65.50;;;;;;5060512;28;20063;-19
2022/03/06 10:03:35;;;;;;;21.25;14.90;;;15.80;65.50;;;;;;5067219;28;20497;-19
2022/03/06 10:06:04;;;;;;;20.10;15.48;;;15.80;65.50;;;;;;5071941;28;20129;-19
2022/03/06 10:08:29;;;;;;;19.48;14.43;;;15.70;65.40;;;;;;5067567;28;20052;-19
2022/03/06 10:11:06;;;;;;;20.60;14.70;;;15.80;65.50;;;;;;5072279;28;20045;-19
2022/03/06 10:13:42;;;;;;;18.88;15.00;;;15.70;65.50;;;;;;5069532;28;20115;-19
2022/03/06 10:16:14;;;;;;;18.95;13.63;;;15.80;65.50;;;;;;5072286;28;20129;-19
2022/03/06 10:18:53;;;;;;;19.52;14.35;;;15.80;65.60;;;;;;5064257;28;20399;-19
2022/03/06 10:21:45;;;;;;;16.33;13.25;;;15.80;65.80;;;;;;5065944;28;20139;-19
2022/03/06 10:24:10;;;;;;;26.25;12.90;;;15.80;65.70;;;;;;5060744;28;20053;-19
2022/03/06 10:26:36;;;;;;;15.55;12.23;;;15.80;65.80;;;;;;5050141;28;20048;-19
2022/03/06 10:29:12;;;;;;;17.15;12.80;;;15.80;65.80;;;;;;5067202;28;20520;-19
2022/03/06 10:31:52;;;;;;;17.23;12.05;;;15.80;65.70;;;;;;5071283;28;20054;-19
2022/03/06 10:34:18;;;;;;;15.70;11.00;;;15.80;66.00;;;;;;5058692;28;20097;-19
2022/03/06 10:36:51;;;;;;;14.35;11.88;;;15.80;65.40;;;;;;5072021;28;20052;-23
2022/03/06 10:39:21;;;;;;;15.68;12.10;;;15.80;65.40;;;;;;5071541;28;20534;-19
2022/03/06 10:41:48;;;;;;;14.32;10.98;;;15.90;65.60;;;;;;5062783;28;20055;-19
2022/03/06 10:44:14;;;;;;;16.50;12.43;;;15.80;65.40;;;;;;5071635;28;20083;-19
2022/03/06 10:46:41;;;;;;;15.02;11.38;;;15.80;65.50;;;;;;5069780;28;20052;-19
2022/03/06 10:49:16;;;;;;;17.15;11.77;;;15.80;65.50;;;;;;5069938;28;20039;-19
2022/03/06 10:51:43;;;;;;;14.85;10.90;;;15.80;65.50;;;;;;5063387;28;20044;-19
2022/03/06 10:54:09;;;;;;;18.92;10.90;;;15.80;65.50;;;;;;5064552;28;20182;-19
2022/03/06 10:56:35;;;;;;;14.25;11.23;;;15.80;65.50;;;;;;5070989;28;20135;-19
2022/03/06 10:59:02;;;;;;;14.98;10.27;;;15.80;65.40;;;;;;5071684;28;20033;-19
2022/03/06 11:01:28;;;;;;;15.55;9.77;;;15.80;65.40;;;;;;5071125;28;20055;-19
2022/03/06 11:03:54;;;;;;;13.80;10.23;;;15.90;65.60;;;;;;5066710;28;20036;-19
2022/03/06 11:06:20;;;;;;;13.65;9.70;;;15.90;65.40;;;;;;5070655;28;20094;-19
2022/03/06 11:08:46;;;;;;;12.50;9.43;;;15.90;65.50;;;;;;5066948;28;20056;-19
2022/03/06 11:11:12;;;;;;;17.30;9.80;;;15.90;65.70;;;;;;5069424;28;20048;-19
2022/03/06 11:13:38;;;;;;;12.93;9.75;;;15.90;66.50;;;;;;5069177;28;20044;-18
2022/03/06 11:16:04;;;;;;;12.15;8.75;;;16.00;65.70;;;;;;5070133;28;20079;-19
2022/03/06 11:18:30;;;;;;;12.23;9.02;;;16.00;65.80;;;;;;5068630;28;20045;-19
2022/03/06 11:20:57;;;;;;;10.98;9.18;;;16.00;65.80;;;;;;5062913;28;20509;-19
2022/03/06 11:23:42;;;;;;;10.63;8.75;;;16.00;65.60;;;;;;5053287;28;20119;-19
2022/03/06 11:26:13;;;;;;;15.02;8.88;;;16.00;65.60;;;;;;5067423;28;20063;-19
2022/03/06 11:28:58;;;;;;;11.15;9.38;;;16.00;65.60;;;;;;5071041;28;20064;-19
2022/03/06 11:31:23;;;;;;;9.38;8.45;;;16.00;65.70;;;;;;5069265;28;20056;-19
2022/03/06 11:33:57;;;;;;;10.50;8.13;;;16.00;65.70;;;;;;5068905;28;20048;-19
2022/03/06 11:36:26;;;;;;;10.63;9.05;;;16.00;65.30;;;;;;5070541;28;20750;-19
2022/03/06 11:38:52;;;;;;;11.88;8.30;;;16.00;65.30;;;;;;5061634;28;20102;-19
2022/03/06 11:41:18;;;;;;;10.10;7.95;;;16.00;65.40;;;;;;5063890;28;20105;-19
2022/03/06 11:43:47;;;;;;;9.02;8.13;;;16.00;65.40;;;;;;5070309;28;20060;-19
2022/03/06 11:46:25;;;;;;;10.18;7.65;;;16.10;65.30;;;;;;5070826;28;20087;-19
2022/03/06 11:48:50;;;;;;;9.40;7.75;;;16.10;65.30;;;;;;5074567;28;20840;-19
2022/03/06 11:51:17;;;;;;;9.15;7.57;;;16.10;65.30;;;;;;5072753;28;20400;-19
2022/03/06 11:53:48;;;;;;;8.73;7.57;;;16.10;65.30;;;;;;5066561;28;20040;-19
2022/03/06 11:56:34;;;;;;;8.48;7.32;;;16.20;65.10;;;;;;5072644;28;20136;-19
2022/03/06 11:59:13;;;;;;;7.88;6.93;;;16.20;65.10;;;;;;5073773;28;20109;-19
2022/03/06 12:01:43;;;;;;;9.43;7.53;;;16.20;65.10;;;;;;5065464;28;20049;-19
2022/03/06 12:04:11;;;;;;;10.35;7.63;;;16.20;64.90;;;;;;5072523;28;20864;-19
2022/03/06 12:07:04;;;;;;;8.43;7.50;;;16.20;65.00;;;;;;5073205;28;20083;-19
2022/03/06 12:09:32;;;;;;;8.13;7.30;;;16.30;64.80;;;;;;5073418;28;20086;-19
2022/03/06 12:11:59;;;;;;;7.40;6.75;;;16.30;64.80;;;;;;5074569;28;20383;-19
2022/03/06 12:14:38;;;;;;;7.68;6.88;;;16.30;64.80;;;;;;5071893;28;20406;-19
2022/03/06 12:17:04;;;;;;;7.38;6.70;;;16.30;64.80;;;;;;5073914;28;20049;-19
2022/03/06 12:19:30;;;;;;;7.85;7.05;;;16.30;64.90;;;;;;5075403;28;20054;-19
2022/03/06 12:22:08;;;;;;;8.60;7.10;;;16.30;64.80;;;;;;5067092;28;20045;-19
2022/03/06 12:24:35;;;;;;;7.35;6.63;;;16.30;64.70;;;;;;5075779;28;20112;-19
2022/03/06 12:27:16;;;;;;;7.18;6.50;;;16.30;64.70;;;;;;5061709;28;20048;-19
2022/03/06 12:29:52;;;;;;;7.28;6.10;;;16.30;64.70;;;;;;5072116;28;20048;-19
2022/03/06 12:32:26;;;;;;;7.18;6.47;;;16.30;64.70;;;;;;5071783;28;20040;-18
2022/03/06 12:35:02;;;;;;;7.63;6.82;;;16.20;64.70;;;;;;5057204;28;20458;-19
2022/03/06 12:37:29;;;;;;;8.45;6.53;;;16.20;64.70;;;;;;5061666;28;20041;-19
2022/03/06 12:39:55;;;;;;;6.40;5.80;;;16.20;64.70;;;;;;5057391;28;20045;-18